Willwood, New York
Current Conditions -  °F | °C
As of 6:39 PM on Wednesday 22 Oct 2014 (Local Time) from KHWV Reporting Station
Light Rain Light Rain  
Wind Chill: 52°   Ceiling: 1500
Heat Index: 52°   Visibility: 5mi
Dew Point: 49°   Wind: 16mph
Humidity: 89%   Direction: 360°N
Pressure: 29.74"   Gusts: 37mph
Location:  40.953°N, 72.8286°W
Report Text: KHWV 222239Z AUTO 36014G32KT 5SM -RA BR FEW009 BKN015 OVC022 11/09 A2974 RMK AO2 PK WND 01032/2231 PRESFR P0010 T01110094 TSNO
Loading
Personal Weather Stations






























Interactive Weather Map
Tropical Storm Tracking
New forecast layout! Learn more

10-Day Weather Forecast

Advertisements
Track Severe Weather on mobile